Time;durP1;ratioP1;P1;durP2;ratioP2;P2;SDS_P1;SDS_P2;PMS_P1;PMS_P2;Temp;Humidity;BMP_temperature;BMP_pressure;BME280_temperature;BME280_humidity;BME280_pressure;Samples;Min_cycle;Max_cycle;Signal;HPM_P1;HPM_P2
2022/10/31 00:00:42;;;;;;;;;;;;;;;12.31;86.38;98492.97;4870423;29;20575;-57
2022/10/31 00:03:10;;;;;;;;;;;;;;;12.30;86.12;98494.91;4872076;29;20382;-58
2022/10/31 00:05:41;;;;;;;;;;;;;;;12.27;86.11;98497.44;4870308;29;19932;-57
2022/10/31 00:08:09;;;;;;;;;;;;;;;12.22;86.17;98500.28;4875501;29;19928;-57
2022/10/31 00:10:38;;;;;;;;;;;;;;;12.17;86.09;98495.75;4889121;29;19942;-58
2022/10/31 00:13:06;;;;;;;;;;;;;;;12.24;86.10;98496.13;4878572;29;19935;-58
2022/10/31 00:15:35;;;;;;;;;;;;;;;12.21;85.91;98502.19;4875625;29;20236;-58
2022/10/31 00:18:04;;;;;;;;;;;;;;;12.20;85.70;98505.22;4876991;29;19953;-57
2022/10/31 00:20:33;;;;;;;;;;;;;;;12.14;86.24;98503.72;4876042;29;19932;-57
2022/10/31 00:23:01;;;;;;;;;;;;;;;12.13;86.33;98500.19;4877802;29;19979;-58
2022/10/31 00:25:29;;;;;;;;;;;;;;;12.13;86.18;98502.09;4886720;29;19927;-57
2022/10/31 00:27:58;;;;;;;;;;;;;;;12.12;85.95;98503.22;4864971;29;19928;-57
2022/10/31 00:30:26;;;;;;;;;;;;;;;12.06;86.46;98506.06;4873928;29;20388;-58
2022/10/31 00:32:54;;;;;;;;;;;;;;;12.03;86.52;98501.22;4868639;29;20301;-57
2022/10/31 00:35:24;;;;;;;;;;;;;;;12.05;86.57;98493.56;4892581;29;19936;-57
2022/10/31 00:37:53;;;;;;;;;;;;;;;12.03;86.05;98503.94;4869012;29;19968;-58
2022/10/31 00:40:20;;;;;;;;;;;;;;;12.04;85.90;98491.94;4877065;29;19928;-57
2022/10/31 00:42:48;;;;;;;;;;;;;;;11.96;86.30;98500.84;4867629;29;20034;-57
2022/10/31 00:45:16;;;;;;;;;;;;;;;11.94;86.36;98499.53;4891525;29;19928;-56
2022/10/31 00:47:44;;;;;;;;;;;;;;;11.96;86.28;98500.84;4889651;29;19967;-57
2022/10/31 00:53:05;;;;;;;;;;;;;;;11.94;85.93;98497.63;4884299;29;19927;-57
2022/10/31 00:55:33;;;;;;;;;;;;;;;11.83;86.52;98496.22;4876306;29;19936;-57
2022/10/31 00:58:02;;;;;;;;;;;;;;;11.83;86.60;98496.22;4877287;29;19935;-57
2022/10/31 01:00:30;;;;;;;;;;;;;;;11.88;86.33;98493.41;4881292;29;19928;-58
2022/10/31 01:02:59;;;;;;;;;;;;;;;11.87;85.87;98491.75;4885938;29;19928;-57
2022/10/31 01:05:27;;;;;;;;;;;;;;;11.86;85.53;98497.53;4869611;29;19936;-58
2022/10/31 01:07:56;;;;;;;;;;;;;;;11.76;86.09;98498.50;4873045;29;19957;-58
2022/10/31 01:10:28;;;;;;;;;;;;;;;11.79;85.73;98496.00;4885788;29;20364;-57
2022/10/31 01:12:58;;;;;;;;;;;;;;;11.77;86.05;98497.41;4881804;29;19959;-60
2022/10/31 01:15:27;;;;;;;;;;;;;;;11.70;86.05;98495.09;4873035;29;19942;-58
2022/10/31 01:17:55;;;;;;;;;;;;;;;11.66;86.15;98491.34;4880220;29;19928;-57
2022/10/31 01:20:23;;;;;;;;;;;;;;;11.52;86.52;98488.66;4889619;29;19955;-58
2022/10/31 01:22:51;;;;;;;;;;;;;;;11.55;86.28;98488.03;4876129;29;19935;-57
2022/10/31 01:25:19;;;;;;;;;;;;;;;11.66;85.96;98490.56;4872937;29;19934;-57
2022/10/31 01:27:50;;;;;;;;;;;;;;;11.68;85.54;98493.78;4876693;29;19928;-57
2022/10/31 01:30:18;;;;;;;;;;;;;;;11.62;85.14;98487.66;4877923;29;20433;-57
2022/10/31 01:32:46;;;;;;;;;;;;;;;11.50;85.12;98488.16;4891435;29;19931;-58
2022/10/31 01:35:14;;;;;;;;;;;;;;;11.53;85.16;98492.19;4894174;29;19932;-58
2022/10/31 01:37:42;;;;;;;;;;;;;;;11.50;85.25;98481.91;4880332;29;20027;-58
2022/10/31 01:40:10;;;;;;;;;;;;;;;11.41;85.14;98484.53;4867204;29;19935;-57
2022/10/31 01:42:38;;;;;;;;;;;;;;;11.49;84.92;98489.25;4876455;29;19931;-57
2022/10/31 01:45:10;;;;;;;;;;;;;;;11.45;85.04;98491.00;4877827;29;19979;-57
2022/10/31 01:47:41;;;;;;;;;;;;;;;11.39;85.00;98494.91;4877072;29;19932;-57
2022/10/31 01:50:14;;;;;;;;;;;;;;;11.34;85.61;98495.00;4876092;29;19935;-58
2022/10/31 01:53:07;;;;;;;;;;;;;;;11.25;86.03;98491.38;4876024;29;19932;-57
2022/10/31 01:55:36;;;;;;;;;;;;;;;11.33;85.89;98489.88;4874899;29;20018;-57
2022/10/31 01:58:05;;;;;;;;;;;;;;;11.31;85.68;98490.19;4887904;29;20370;-56
2022/10/31 02:00:35;;;;;;;;;;;;;;;11.28;85.82;98485.31;4872756;29;19962;-58
2022/10/31 02:03:03;;;;;;;;;;;;;;;11.29;85.89;98495.09;4873929;29;20396;-58
2022/10/31 02:05:31;;;;;;;;;;;;;;;11.30;85.31;98499.44;4879662;29;20362;-57
2022/10/31 02:07:59;;;;;;;;;;;;;;;11.21;85.65;98490.38;4895544;29;20385;-58
2022/10/31 02:10:29;;;;;;;;;;;;;;;11.17;85.89;98494.78;4879840;29;20388;-57
2022/10/31 02:13:00;;;;;;;;;;;;;;;11.06;86.12;98498.81;4891412;29;20442;-58
2022/10/31 02:15:29;;;;;;;;;;;;;;;11.16;86.00;98488.53;4892692;29;19935;-59
2022/10/31 02:17:58;;;;;;;;;;;;;;;11.13;86.14;98485.59;4878419;29;20000;-58
2022/10/31 02:20:28;;;;;;;;;;;;;;;11.07;86.20;98486.81;4893670;29;19970;-57
2022/10/31 02:23:06;;;;;;;;;;;;;;;10.92;86.53;98488.72;4879919;29;19967;-58
2022/10/31 02:25:47;;;;;;;;;;;;;;;10.98;86.45;98492.16;4889210;29;19936;-57
2022/10/31 02:28:21;;;;;;;;;;;;;;;10.99;86.40;98480.97;4870988;29;19935;-56
2022/10/31 02:31:01;;;;;;;;;;;;;;;10.95;86.56;98482.69;4876955;29;19931;-58
2022/10/31 02:33:31;;;;;;;;;;;;;;;11.05;86.41;98489.03;4878169;29;19950;-58
2022/10/31 02:36:01;;;;;;;;;;;;;;;11.11;86.34;98482.41;4878614;29;19935;-57
2022/10/31 02:38:39;;;;;;;;;;;;;;;11.10;85.87;98484.31;4878317;29;19928;-59
2022/10/31 02:41:11;;;;;;;;;;;;;;;11.08;85.68;98486.53;4877314;29;20045;-59
2022/10/31 02:43:53;;;;;;;;;;;;;;;10.95;86.36;98482.69;4877602;29;19928;-59
2022/10/31 02:46:26;;;;;;;;;;;;;;;10.91;86.52;98487.09;4870376;29;19935;-60
2022/10/31 02:48:54;;;;;;;;;;;;;;;10.93;86.23;98482.19;4873486;29;19928;-58
2022/10/31 02:51:22;;;;;;;;;;;;;;;10.96;86.11;98489.72;4875388;29;19984;-60
2022/10/31 02:56:42;;;;;;;;;;;;;;;10.90;86.10;98482.75;4875266;29;19936;-59
2022/10/31 02:59:10;;;;;;;;;;;;;;;10.89;85.77;98483.88;4872784;29;20441;-59
2022/10/31 03:01:49;;;;;;;;;;;;;;;10.78;86.03;98474.28;4874714;29;20484;-59
2022/10/31 03:04:42;;;;;;;;;;;;;;;10.87;85.26;98475.22;4885266;29;19935;-58
2022/10/31 03:07:35;;;;;;;;;;;;;;;10.78;85.25;98473.50;4885193;29;19967;-59
2022/10/31 03:10:08;;;;;;;;;;;;;;;10.73;85.34;98474.38;4886647;29;19934;-59
2022/10/31 03:15:32;;;;;;;;;;;;;;;10.80;84.84;98469.34;4877078;29;19928;-59
2022/10/31 03:18:02;;;;;;;;;;;;;;;10.72;85.04;98470.06;4865814;29;19928;-59
2022/10/31 03:20:31;;;;;;;;;;;;;;;10.68;85.01;98469.03;4891956;29;20004;-58
2022/10/31 03:22:58;;;;;;;;;;;;;;;10.76;84.36;98471.06;4878407;29;19927;-59
2022/10/31 03:25:26;;;;;;;;;;;;;;;10.69;84.54;98474.16;4892004;29;20078;-59
2022/10/31 03:27:56;;;;;;;;;;;;;;;10.72;84.40;98475.50;4877886;29;19976;-60
2022/10/31 03:30:28;;;;;;;;;;;;;;;10.60;84.44;98472.41;4876390;29;19974;-60
2022/10/31 03:32:58;;;;;;;;;;;;;;;10.60;84.46;98475.13;4865329;29;19935;-59
2022/10/31 03:35:28;;;;;;;;;;;;;;;10.53;84.96;98474.72;4876431;29;19940;-59
2022/10/31 03:37:56;;;;;;;;;;;;;;;10.58;84.97;98478.16;4875057;29;19932;-60
2022/10/31 03:40:24;;;;;;;;;;;;;;;10.60;84.56;98480.56;4884833;29;19934;-60
2022/10/31 03:42:53;;;;;;;;;;;;;;;10.61;84.69;98476.78;4876159;29;19927;-59
2022/10/31 03:45:22;;;;;;;;;;;;;;;10.55;84.89;98473.34;4884471;29;19932;-59
2022/10/31 03:47:50;;;;;;;;;;;;;;;10.62;84.65;98476.47;4871858;29;20310;-60
2022/10/31 03:50:18;;;;;;;;;;;;;;;10.41;85.21;98472.47;4866758;29;19927;-59
2022/10/31 03:52:50;;;;;;;;;;;;;;;10.49;85.12;98475.31;4881810;29;19933;-59
2022/10/31 03:55:20;;;;;;;;;;;;;;;10.55;84.73;98478.78;4879411;29;20830;-59
2022/10/31 03:57:49;;;;;;;;;;;;;;;10.53;84.71;98480.16;4873231;29;20451;-58
2022/10/31 04:00:43;;;;;;;;;;;;;;;10.47;84.59;98472.09;4866217;29;19931;-59
2022/10/31 04:03:12;;;;;;;;;;;;;;;10.31;84.91;98478.88;4887597;29;19934;-59
2022/10/31 04:05:43;;;;;;;;;;;;;;;10.39;84.85;98486.34;4872552;29;19928;-59
2022/10/31 04:08:15;;;;;;;;;;;;;;;10.28;84.81;98486.78;4890451;29;20034;-58
2022/10/31 04:10:43;;;;;;;;;;;;;;;10.38;84.35;98483.91;4881424;29;20000;-59
2022/10/31 04:13:13;;;;;;;;;;;;;;;10.33;84.75;98487.50;4872839;29;19935;-60
2022/10/31 04:15:50;;;;;;;;;;;;;;;10.19;85.32;98486.63;4888607;29;20267;-59
2022/10/31 04:18:23;;;;;;;;;;;;;;;10.29;84.71;98493.84;4873879;29;19935;-59
2022/10/31 04:20:59;;;;;;;;;;;;;;;10.20;85.48;98488.25;4890209;29;19928;-60
2022/10/31 04:23:28;;;;;;;;;;;;;;;10.21;85.37;98489.84;4889456;29;20293;-59
2022/10/31 04:25:57;;;;;;;;;;;;;;;10.18;85.44;98480.41;4874886;29;19932;-59
2022/10/31 04:28:24;;;;;;;;;;;;;;;10.25;85.36;98484.69;4872446;29;20009;-59
2022/10/31 04:30:55;;;;;;;;;;;;;;;10.23;84.86;98483.06;4891169;29;20011;-58
2022/10/31 04:33:23;;;;;;;;;;;;;;;10.29;84.91;98494.66;4873570;29;19988;-60
2022/10/31 04:35:50;;;;;;;;;;;;;;;10.18;84.90;98493.16;4877385;29;19928;-59
2022/10/31 04:38:19;;;;;;;;;;;;;;;10.15;85.12;98491.03;4877196;29;20385;-59
2022/10/31 04:40:49;;;;;;;;;;;;;;;10.22;84.67;98491.47;4873997;29;19927;-59
2022/10/31 04:43:46;;;;;;;;;;;;;;;10.03;85.15;98488.75;4876077;29;19947;-59
2022/10/31 04:46:14;;;;;;;;;;;;;;;10.14;84.79;98481.28;4875833;29;19928;-59
2022/10/31 04:48:42;;;;;;;;;;;;;;;10.19;84.53;98482.00;4863850;29;19929;-63
2022/10/31 04:51:13;;;;;;;;;;;;;;;10.18;84.04;98485.03;4883521;29;19934;-60
2022/10/31 04:53:40;;;;;;;;;;;;;;;10.11;84.41;98479.94;4895003;29;19944;-59
2022/10/31 04:56:28;;;;;;;;;;;;;;;10.13;84.29;98482.38;4868885;29;19936;-60
2022/10/31 05:01:54;;;;;;;;;;;;;;;10.14;84.32;98479.38;4880393;29;19928;-59
2022/10/31 05:04:33;;;;;;;;;;;;;;;10.06;84.82;98471.88;4875585;29;19935;-59
2022/10/31 05:07:02;;;;;;;;;;;;;;;10.04;84.76;98473.28;4892016;29;20019;-59
2022/10/31 05:09:57;;;;;;;;;;;;;;;10.00;84.86;98474.97;4871035;29;19960;-60
2022/10/31 05:12:27;;;;;;;;;;;;;;;9.94;84.79;98469.59;4878529;29;19928;-59
2022/10/31 05:15:07;;;;;;;;;;;;;;;10.02;84.74;98465.44;4875590;29;20568;-58
2022/10/31 05:18:13;;;;;;;;;;;;;;;10.05;84.42;98469.47;4874947;29;19928;-59
2022/10/31 05:21:00;;;;;;;;;;;;;;;9.96;84.54;98464.72;4878620;29;19927;-59
2022/10/31 05:26:48;;;;;;;;;;;;;;;10.02;83.96;98464.63;4877898;29;19935;-59
2022/10/31 05:29:19;;;;;;;;;;;;;;;10.03;84.03;98460.81;4877703;29;20377;-59
2022/10/31 05:31:48;;;;;;;;;;;;;;;10.07;83.84;98459.13;4879463;29;19987;-59
2022/10/31 05:34:38;;;;;;;;;;;;;;;10.00;84.08;98464.09;4877516;29;19939;-59
2022/10/31 05:37:44;;;;;;;;;;;;;;;10.02;84.35;98461.91;4872133;29;19928;-60
2022/10/31 05:40:13;;;;;;;;;;;;;;;10.06;83.97;98466.44;4876058;29;19935;-59
2022/10/31 05:42:42;;;;;;;;;;;;;;;10.08;83.90;98468.88;4890100;29;19928;-60
2022/10/31 05:45:12;;;;;;;;;;;;;;;10.03;83.89;98466.25;4875086;29;19928;-59
2022/10/31 05:47:53;;;;;;;;;;;;;;;9.80;84.60;98468.72;4878219;29;19955;-60
2022/10/31 05:50:39;;;;;;;;;;;;;;;9.85;84.65;98465.13;4875612;29;20072;-59
2022/10/31 05:53:11;;;;;;;;;;;;;;;9.91;84.53;98467.50;4877562;29;19934;-58
2022/10/31 05:55:40;;;;;;;;;;;;;;;9.82;84.56;98471.94;4879138;29;19927;-59
2022/10/31 05:58:19;;;;;;;;;;;;;;;9.82;84.40;98469.25;4891334;29;20411;-58
2022/10/31 06:01:06;;;;;;;;;;;;;;;9.85;84.28;98473.25;4875156;29;19935;-60
2022/10/31 06:03:35;;;;;;;;;;;;;;;9.78;84.80;98476.34;4876640;29;20764;-59
2022/10/31 06:06:06;;;;;;;;;;;;;;;9.82;84.80;98482.00;4877713;29;19935;-59
2022/10/31 06:08:40;;;;;;;;;;;;;;;9.64;85.14;98473.56;4886336;29;19967;-59
2022/10/31 06:11:14;;;;;;;;;;;;;;;9.56;85.41;98476.91;4892070;29;20386;-60
2022/10/31 06:14:01;;;;;;;;;;;;;;;9.67;85.24;98478.38;4876236;29;19928;-59
2022/10/31 06:16:50;;;;;;;;;;;;;;;9.63;85.00;98473.81;4872254;29;20524;-59
2022/10/31 06:19:37;;;;;;;;;;;;;;;9.69;84.93;98475.38;4874426;29;19932;-59
2022/10/31 06:22:05;;;;;;;;;;;;;;;9.80;84.46;98476.88;4891494;29;19935;-59
2022/10/31 06:24:33;;;;;;;;;;;;;;;9.85;84.03;98481.41;4877623;29;19983;-59
2022/10/31 06:27:07;;;;;;;;;;;;;;;9.75;84.15;98476.94;4873631;29;19932;-59
2022/10/31 06:29:35;;;;;;;;;;;;;;;9.75;83.60;98474.22;4862418;29;19932;-59
2022/10/31 06:32:11;;;;;;;;;;;;;;;9.71;83.89;98470.47;4876169;29;19935;-59
2022/10/31 06:34:42;;;;;;;;;;;;;;;9.66;83.83;98470.53;4875986;29;19975;-59
2022/10/31 06:37:11;;;;;;;;;;;;;;;9.81;83.53;98472.25;4874318;29;19935;-59
2022/10/31 06:39:41;;;;;;;;;;;;;;;9.71;83.49;98475.91;4889476;29;19935;-60
2022/10/31 06:42:16;;;;;;;;;;;;;;;9.84;83.13;98475.16;4891898;29;19991;-59
2022/10/31 06:44:44;;;;;;;;;;;;;;;9.80;83.37;98478.75;4878881;29;19928;-59
2022/10/31 06:47:32;;;;;;;;;;;;;;;9.71;83.41;98486.75;4874461;29;19928;-59
2022/10/31 06:50:12;;;;;;;;;;;;;;;9.67;83.53;98491.16;4875617;29;20014;-59
2022/10/31 06:52:39;;;;;;;;;;;;;;;9.68;83.88;98481.91;4874506;29;20338;-60
2022/10/31 06:55:08;;;;;;;;;;;;;;;9.74;83.60;98486.16;4890056;29;19936;-59
2022/10/31 06:57:37;;;;;;;;;;;;;;;9.79;83.76;98488.00;4872417;29;20139;-60
2022/10/31 07:00:05;;;;;;;;;;;;;;;9.87;83.91;98490.88;4877300;29;19932;-57
2022/10/31 07:02:53;;;;;;;;;;;;;;;9.95;83.24;98492.91;4881014;29;19991;-57
2022/10/31 07:05:23;;;;;;;;;;;;;;;9.96;83.32;98485.63;4874372;29;20036;-56
2022/10/31 07:07:54;;;;;;;;;;;;;;;9.90;83.81;98487.56;4874878;29;20429;-56
2022/10/31 07:10:26;;;;;;;;;;;;;;;10.06;83.15;98481.91;4873354;29;19936;-59
2022/10/31 07:13:25;;;;;;;;;;;;;;;10.02;83.13;98484.44;4875137;29;19952;-60
2022/10/31 07:16:02;;;;;;;;;;;;;;;10.09;83.14;98486.78;4870739;29;19928;-59
2022/10/31 07:18:34;;;;;;;;;;;;;;;10.16;83.05;98495.34;4873357;29;19928;-59
2022/10/31 07:21:02;;;;;;;;;;;;;;;10.18;82.75;98495.88;4875334;29;19932;-59
2022/10/31 07:23:31;;;;;;;;;;;;;;;10.24;83.09;98497.44;4871073;29;20305;-59
2022/10/31 07:26:18;;;;;;;;;;;;;;;10.25;82.79;98503.69;4871110;29;20365;-59
2022/10/31 07:28:47;;;;;;;;;;;;;;;10.22;83.12;98507.75;4888174;29;19983;-59
2022/10/31 07:31:18;;;;;;;;;;;;;;;10.11;84.13;98501.66;4874884;29;19932;-58
2022/10/31 07:33:48;;;;;;;;;;;;;;;10.20;83.62;98504.53;4884610;29;19971;-59
2022/10/31 07:36:28;;;;;;;;;;;;;;;10.28;83.22;98500.38;4866959;29;20031;-59
2022/10/31 07:39:02;;;;;;;;;;;;;;;10.34;83.12;98491.88;4892277;29;19943;-59
2022/10/31 07:41:32;;;;;;;;;;;;;;;10.35;82.98;98496.19;4877359;29;19931;-58
2022/10/31 07:44:00;;;;;;;;;;;;;;;10.40;83.01;98498.81;4881448;29;19959;-60
2022/10/31 07:46:47;;;;;;;;;;;;;;;10.37;83.38;98499.41;4872036;29;19928;-59
2022/10/31 07:49:41;;;;;;;;;;;;;;;10.48;82.97;98497.34;4872929;29;20305;-58
2022/10/31 07:52:28;;;;;;;;;;;;;;;10.49;82.93;98493.50;4867799;29;19946;-58
2022/10/31 07:54:56;;;;;;;;;;;;;;;10.54;82.66;98498.06;4869807;29;19935;-59
2022/10/31 07:57:24;;;;;;;;;;;;;;;10.53;83.01;98494.53;4886118;29;19963;-59
2022/10/31 07:59:52;;;;;;;;;;;;;;;10.66;82.91;98495.72;4887535;29;19928;-58
2022/10/31 08:02:20;;;;;;;;;;;;;;;10.75;82.99;98488.47;4887165;29;19927;-58
2022/10/31 08:04:50;;;;;;;;;;;;;;;10.80;82.77;98491.09;4872810;29;19935;-58
2022/10/31 08:07:38;;;;;;;;;;;;;;;10.82;83.02;98486.19;4868879;29;19928;-59
2022/10/31 08:10:12;;;;;;;;;;;;;;;10.90;83.31;98485.47;4878768;29;19935;-59
2022/10/31 08:12:40;;;;;;;;;;;;;;;11.02;82.92;98488.53;4875251;29;19934;-59
2022/10/31 08:15:09;;;;;;;;;;;;;;;11.08;82.83;98485.72;4879542;29;19936;-59
2022/10/31 08:17:37;;;;;;;;;;;;;;;11.14;83.17;98489.97;4871057;29;19932;-58
2022/10/31 08:20:07;;;;;;;;;;;;;;;11.21;82.76;98488.44;4874268;29;20457;-58
2022/10/31 08:22:42;;;;;;;;;;;;;;;11.25;83.12;98485.94;4883783;29;19978;-59
2022/10/31 08:25:11;;;;;;;;;;;;;;;11.30;83.37;98480.41;4871850;29;20370;-59
2022/10/31 08:27:39;;;;;;;;;;;;;;;11.41;83.08;98473.66;4865073;29;19955;-59
2022/10/31 08:30:15;;;;;;;;;;;;;;;11.45;83.31;98480.09;4884890;29;19935;-58
2022/10/31 08:32:59;;;;;;;;;;;;;;;11.54;83.18;98474.75;4873753;29;19980;-62
2022/10/31 08:39:05;;;;;;;;;;;;;;;11.71;83.03;98471.41;4888971;29;20289;-58
2022/10/31 08:41:35;;;;;;;;;;;;;;;11.78;82.85;98478.06;4870523;29;19932;-59
2022/10/31 08:44:03;;;;;;;;;;;;;;;11.86;82.71;98468.38;4886416;29;19936;-59
2022/10/31 08:46:38;;;;;;;;;;;;;;;11.90;82.92;98477.56;4888337;29;19962;-59
2022/10/31 08:49:09;;;;;;;;;;;;;;;12.00;82.69;98469.16;4875863;29;19935;-59
2022/10/31 08:51:40;;;;;;;;;;;;;;;12.05;82.62;98468.25;4885455;29;19928;-59
2022/10/31 08:54:08;;;;;;;;;;;;;;;12.11;82.68;98467.00;4883850;29;19953;-59
2022/10/31 08:56:56;;;;;;;;;;;;;;;12.26;82.37;98472.09;4868398;29;20370;-59
2022/10/31 08:59:42;;;;;;;;;;;;;;;12.35;82.46;98476.81;4874356;29;20405;-59
2022/10/31 09:02:31;;;;;;;;;;;;;;;12.42;82.18;98469.03;4882181;29;19939;-58
2022/10/31 09:05:02;;;;;;;;;;;;;;;12.57;82.00;98464.00;4873479;29;20418;-58
2022/10/31 09:07:33;;;;;;;;;;;;;;;12.66;81.97;98463.25;4884529;29;20336;-58
2022/10/31 09:10:04;;;;;;;;;;;;;;;12.80;81.53;98461.25;4867443;29;19928;-58
2022/10/31 09:12:35;;;;;;;;;;;;;;;12.88;80.98;98459.69;4870242;29;19935;-60
2022/10/31 09:15:09;;;;;;;;;;;;;;;12.98;80.48;98456.69;4873818;29;19943;-58
2022/10/31 09:17:47;;;;;;;;;;;;;;;13.05;80.33;98455.13;4888529;29;19932;-59
2022/10/31 09:20:41;;;;;;;;;;;;;;;13.16;80.33;98460.31;4866883;29;20429;-58
2022/10/31 09:29:05;;;;;;;;;;;;;;;13.41;79.60;98458.81;4868954;29;20030;-58
2022/10/31 09:31:34;;;;;;;;;;;;;;;13.48;79.47;98451.00;4887297;29;19936;-59
2022/10/31 09:34:26;;;;;;;;;;;;;;;13.60;78.73;98460.16;4864331;29;20378;-58
2022/10/31 09:37:05;;;;;;;;;;;;;;;13.70;78.43;98455.53;4876324;29;19936;-59
2022/10/31 09:39:36;;;;;;;;;;;;;;;13.75;78.15;98455.38;4898170;29;20403;-59
2022/10/31 09:42:24;;;;;;;;;;;;;;;13.85;78.82;98452.34;4888525;29;19928;-59
2022/10/31 09:44:58;;;;;;;;;;;;;;;13.95;78.37;98452.00;4872500;29;19928;-59
2022/10/31 09:47:55;;;;;;;;;;;;;;;14.07;77.63;98448.66;4869303;29;19932;-59
2022/10/31 09:50:35;;;;;;;;;;;;;;;14.11;77.18;98444.97;4875887;29;19927;-58
2022/10/31 09:53:30;;;;;;;;;;;;;;;14.20;77.22;98444.16;4871924;29;19927;-59
2022/10/31 10:04:17;;;;;;;;;;;;;;;14.59;75.77;98433.03;4837395;29;20309;-59
2022/10/31 10:07:04;;;;;;;;;;;;;;;14.68;75.56;98433.84;4891485;29;19971;-58
2022/10/31 10:10:16;;;;;;;;;;;;;;;14.79;75.33;98428.03;4869167;29;20343;-59
2022/10/31 10:16:32;;;;;;;;;;;;;;;15.05;75.11;98419.72;4889592;29;19931;-59
2022/10/31 10:26:44;;;;;;;;;;;;;;;15.41;75.07;98411.03;4837199;29;19971;-61
2022/10/31 10:29:50;;;;;;;;;;;;;;;15.44;75.16;98408.41;4868951;29;19928;-60
2022/10/31 10:33:04;;;;;;;;;;;;;;;15.63;73.78;98408.03;4876094;29;20062;-59
2022/10/31 10:35:33;;;;;;;;;;;;;;;15.65;73.83;98403.00;4875353;29;21026;-60
2022/10/31 10:38:03;;;;;;;;;;;;;;;15.70;73.98;98400.06;4876569;29;20011;-59
2022/10/31 10:43:24;;;;;;;;;;;;;;;15.91;73.19;98399.28;4869760;29;20389;-59
2022/10/31 10:48:45;;;;;;;;;;;;;;;16.01;73.40;98390.66;4887092;29;19934;-59
2022/10/31 10:51:20;;;;;;;;;;;;;;;16.06;72.78;98382.22;4871832;29;19931;-59
2022/10/31 10:54:17;;;;;;;;;;;;;;;16.11;72.89;98373.81;4876502;29;20007;-59
2022/10/31 10:56:49;;;;;;;;;;;;;;;16.12;73.44;98380.88;4875907;29;19939;-59
2022/10/31 10:59:18;;;;;;;;;;;;;;;16.12;73.70;98378.16;4876570;29;19976;-59
2022/10/31 11:01:51;;;;;;;;;;;;;;;16.12;73.81;98367.19;4871608;29;19928;-59
2022/10/31 11:04:27;;;;;;;;;;;;;;;16.15;73.86;98369.25;4875780;29;19992;-59
2022/10/31 11:07:03;;;;;;;;;;;;;;;16.19;73.89;98369.38;4878158;29;19934;-59
2022/10/31 11:09:31;;;;;;;;;;;;;;;16.20;74.47;98362.78;4876004;29;19939;-58
2022/10/31 11:11:59;;;;;;;;;;;;;;;16.18;74.80;98363.09;4876747;29;19928;-59
2022/10/31 11:20:31;;;;;;;;;;;;;;;16.34;74.46;98354.22;4872860;29;19936;-59
2022/10/31 11:23:03;;;;;;;;;;;;;;;16.35;75.30;98345.69;4875143;29;19975;-59
2022/10/31 11:25:31;;;;;;;;;;;;;;;16.39;74.75;98343.06;4874112;29;19947;-59
2022/10/31 11:27:59;;;;;;;;;;;;;;;16.41;74.94;98338.06;4876090;29;19928;-59
2022/10/31 11:30:30;;;;;;;;;;;;;;;16.45;74.95;98341.69;4873887;29;20200;-59
2022/10/31 11:32:58;;;;;;;;;;;;;;;16.58;74.50;98339.78;4872567;29;19938;-59
2022/10/31 11:35:28;;;;;;;;;;;;;;;16.59;74.10;98324.94;4872629;29;20030;-59
2022/10/31 11:37:58;;;;;;;;;;;;;;;16.67;73.97;98327.59;4871079;29;19928;-59
2022/10/31 11:40:27;;;;;;;;;;;;;;;16.72;74.34;98327.41;4876827;29;20390;-59
2022/10/31 11:42:55;;;;;;;;;;;;;;;16.80;74.05;98322.13;4874476;29;19927;-59
2022/10/31 11:45:28;;;;;;;;;;;;;;;16.82;74.12;98319.84;4876393;29;19932;-59
2022/10/31 11:47:57;;;;;;;;;;;;;;;16.85;73.99;98328.19;4890092;29;20030;-59
2022/10/31 11:50:35;;;;;;;;;;;;;;;16.86;73.69;98315.28;4870381;29;19938;-59
2022/10/31 11:53:04;;;;;;;;;;;;;;;16.89;73.70;98312.66;4876623;29;20365;-60
2022/10/31 11:55:33;;;;;;;;;;;;;;;16.94;73.35;98306.13;4869782;29;19939;-57
2022/10/31 12:00:54;;;;;;;;;;;;;;;17.08;73.62;98292.84;4872315;29;19980;-56
2022/10/31 12:03:38;;;;;;;;;;;;;;;17.06;73.37;98292.41;4876530;29;20011;-57
2022/10/31 12:06:08;;;;;;;;;;;;;;;17.14;72.74;98287.91;4871654;29;19942;-56
2022/10/31 12:08:37;;;;;;;;;;;;;;;17.19;72.71;98285.72;4875631;29;20285;-57
2022/10/31 12:11:08;;;;;;;;;;;;;;;17.20;72.89;98281.84;4873543;29;19928;-57
2022/10/31 12:13:38;;;;;;;;;;;;;;;17.21;73.05;98280.72;4873029;29;20023;-57
2022/10/31 12:16:09;;;;;;;;;;;;;;;17.21;72.88;98272.47;4874892;29;19927;-57
2022/10/31 12:18:53;;;;;;;;;;;;;;;17.20;73.25;98276.34;4872041;29;20334;-58
2022/10/31 12:21:28;;;;;;;;;;;;;;;17.19;73.21;98272.00;4872963;29;20445;-58
2022/10/31 12:23:59;;;;;;;;;;;;;;;17.22;73.13;98268.59;4876311;29;19934;-57
2022/10/31 12:26:52;;;;;;;;;;;;;;;17.32;73.47;98269.25;4872315;29;19928;-57
2022/10/31 12:29:28;;;;;;;;;;;;;;;17.37;72.99;98271.75;4872150;29;20050;-58
2022/10/31 12:32:00;;;;;;;;;;;;;;;17.40;73.27;98268.31;4889972;29;19928;-57
2022/10/31 12:34:42;;;;;;;;;;;;;;;17.44;72.95;98258.22;4873391;29;20010;-57
2022/10/31 12:37:20;;;;;;;;;;;;;;;17.39;72.97;98256.53;4876011;29;19932;-58
2022/10/31 12:39:51;;;;;;;;;;;;;;;17.38;73.38;98254.13;4870984;29;19936;-57
2022/10/31 12:42:20;;;;;;;;;;;;;;;17.40;73.24;98254.56;4870175;29;20042;-57
2022/10/31 12:44:55;;;;;;;;;;;;;;;17.39;73.13;98245.53;4873496;29;20442;-57
2022/10/31 12:47:28;;;;;;;;;;;;;;;17.43;73.02;98245.66;4870427;29;19935;-57
2022/10/31 16:28:53;;;;;;;;;;;;;;;15.43;82.98;98088.41;3919799;29;19932;-61
2022/10/31 16:31:31;;;;;;;;;;;;;;;15.41;83.07;98087.97;4878666;29;19951;-58
2022/10/31 16:34:02;;;;;;;;;;;;;;;15.39;83.26;98091.06;4865936;29;20390;-58
2022/10/31 16:36:31;;;;;;;;;;;;;;;15.39;83.24;98087.50;4869607;29;20393;-59
2022/10/31 16:39:03;;;;;;;;;;;;;;;15.36;83.13;98094.47;4869304;29;20007;-60
2022/10/31 16:41:30;;;;;;;;;;;;;;;15.30;82.98;98097.75;4887266;29;19934;-59
2022/10/31 16:44:01;;;;;;;;;;;;;;;15.23;83.21;98102.94;4871955;29;20464;-59
2022/10/31 16:46:28;;;;;;;;;;;;;;;15.17;83.46;98096.88;4864374;29;19928;-59
2022/10/31 16:49:21;;;;;;;;;;;;;;;15.14;83.61;98101.13;4873948;29;19928;-59
2022/10/31 16:51:49;;;;;;;;;;;;;;;15.13;83.68;98101.47;4872386;29;19932;-58
2022/10/31 16:54:17;;;;;;;;;;;;;;;15.11;83.63;98095.50;4875107;29;20038;-58
2022/10/31 16:56:45;;;;;;;;;;;;;;;15.04;83.58;98092.53;4872662;29;19943;-58
2022/10/31 16:59:14;;;;;;;;;;;;;;;14.99;83.45;98095.47;4874823;29;19934;-59
2022/10/31 17:02:08;;;;;;;;;;;;;;;14.89;84.21;98099.41;4868384;29;19928;-59
2022/10/31 17:04:36;;;;;;;;;;;;;;;14.82;84.18;98104.63;4855678;29;19935;-59
2022/10/31 17:07:06;;;;;;;;;;;;;;;14.80;84.05;98104.94;4858634;29;20309;-59
2022/10/31 17:09:34;;;;;;;;;;;;;;;14.76;84.32;98112.22;4855907;29;19974;-59
2022/10/31 17:12:02;;;;;;;;;;;;;;;14.76;84.20;98114.16;4857953;29;20378;-59
2022/10/31 17:14:55;;;;;;;;;;;;;;;14.74;85.15;98108.22;4857013;29;20396;-58
2022/10/31 17:17:25;;;;;;;;;;;;;;;14.71;85.37;98098.75;4867194;29;19967;-58
2022/10/31 17:19:53;;;;;;;;;;;;;;;14.65;84.80;98105.56;4872256;29;20293;-58
2022/10/31 17:22:21;;;;;;;;;;;;;;;14.57;84.75;98107.22;4873374;29;19928;-58
2022/10/31 17:24:49;;;;;;;;;;;;;;;14.54;85.09;98101.59;4874105;29;20362;-59
2022/10/31 17:27:17;;;;;;;;;;;;;;;14.51;85.15;98097.59;4877184;29;19979;-57
2022/10/31 17:29:45;;;;;;;;;;;;;;;14.46;85.00;98102.44;4872109;29;19942;-59
2022/10/31 17:32:13;;;;;;;;;;;;;;;14.46;85.40;98096.97;4865909;29;19928;-59
2022/10/31 17:34:42;;;;;;;;;;;;;;;14.46;85.42;98096.97;4874967;29;20354;-59
2022/10/31 17:37:10;;;;;;;;;;;;;;;14.41;85.74;98100.69;4868401;29;20616;-59
2022/10/31 17:39:38;;;;;;;;;;;;;;;14.30;85.48;98100.28;4885155;29;20376;-58
2022/10/31 17:42:05;;;;;;;;;;;;;;;14.29;85.84;98103.34;4872235;29;19944;-58
2022/10/31 17:44:34;;;;;;;;;;;;;;;14.25;86.07;98096.94;4873067;29;20145;-58
2022/10/31 17:47:27;;;;;;;;;;;;;;;14.21;86.17;98096.00;4864676;29;19927;-58
2022/10/31 17:49:58;;;;;;;;;;;;;;;14.18;86.24;98096.66;4868763;29;20015;-58
2022/10/31 17:52:52;;;;;;;;;;;;;;;14.18;86.29;98080.28;4869071;29;19928;-59
2022/10/31 17:55:20;;;;;;;;;;;;;;;14.13;86.38;98076.59;4868399;29;19938;-58
2022/10/31 17:57:48;;;;;;;;;;;;;;;14.10;86.18;98079.19;4871240;29;19984;-58